createdAt,value
2017-12-17T00:00:50.915Z,3.72
2017-12-17T00:03:20.072Z,3.50
2017-12-17T00:05:48.297Z,3.12
2017-12-17T00:08:16.485Z,2.45
2017-12-17T00:10:45.677Z,2.92
2017-12-17T00:13:13.845Z,2.55
2017-12-17T00:15:42.038Z,2.78
2017-12-17T00:18:10.174Z,2.35
2017-12-17T00:20:39.309Z,2.53
2017-12-17T00:23:07.475Z,3.42
2017-12-17T00:25:36.677Z,2.05
2017-12-17T00:28:04.822Z,2.67
2017-12-17T00:30:33.690Z,2.80
2017-12-17T00:33:02.112Z,2.00
2017-12-17T00:35:30.365Z,2.00
2017-12-17T00:37:58.671Z,2.10
2017-12-17T00:40:27.186Z,2.80
2017-12-17T00:42:55.591Z,2.30
2017-12-17T00:45:23.801Z,2.10
2017-12-17T00:47:51.981Z,2.35
2017-12-17T00:50:20.273Z,2.15
2017-12-17T00:52:48.460Z,2.28
2017-12-17T00:55:16.628Z,1.98
2017-12-17T00:57:44.797Z,2.83
2017-12-17T01:00:12.998Z,2.40
2017-12-17T01:02:42.216Z,2.65
2017-12-17T01:05:10.366Z,2.40
2017-12-17T01:07:38.521Z,2.20
2017-12-17T01:10:06.698Z,2.45
2017-12-17T01:12:34.861Z,2.95
2017-12-17T01:15:03.013Z,2.62
2017-12-17T01:17:31.166Z,2.92
2017-12-17T01:20:00.314Z,2.85
2017-12-17T01:22:28.510Z,3.03
2017-12-17T01:24:56.635Z,3.10
2017-12-17T01:27:24.786Z,3.55
2017-12-17T01:29:52.973Z,2.50
2017-12-17T01:32:21.182Z,3.22
2017-12-17T01:34:49.325Z,2.85
2017-12-17T01:37:17.509Z,3.78
2017-12-17T01:39:45.678Z,3.65
2017-12-17T01:42:13.845Z,2.80
2017-12-17T01:44:42.098Z,3.90
2017-12-17T01:47:10.298Z,2.80
2017-12-17T01:49:39.462Z,2.62
2017-12-17T01:52:07.617Z,2.87
2017-12-17T01:54:36.766Z,2.87
2017-12-17T01:57:04.909Z,2.95
2017-12-17T01:59:33.066Z,3.05
2017-12-17T02:02:01.240Z,3.47
2017-12-17T02:04:29.405Z,2.78
2017-12-17T02:06:57.574Z,2.78
2017-12-17T02:09:25.818Z,3.58
2017-12-17T02:11:54.001Z,2.95
2017-12-17T02:14:22.159Z,3.55
2017-12-17T02:16:50.306Z,2.72
2017-12-17T02:19:18.461Z,3.62
2017-12-17T02:21:46.679Z,3.47
2017-12-17T02:24:14.878Z,3.10
2017-12-17T02:26:43.022Z,3.15
2017-12-17T02:29:11.215Z,3.80
2017-12-17T02:31:39.374Z,2.60
2017-12-17T02:34:07.554Z,3.53
2017-12-17T02:36:35.769Z,3.20
2017-12-17T02:39:03.950Z,2.60
2017-12-17T02:41:32.087Z,2.90
2017-12-17T02:44:00.298Z,3.65
2017-12-17T02:46:28.422Z,3.45
2017-12-17T02:48:56.602Z,3.25
2017-12-17T02:51:24.814Z,2.92
2017-12-17T02:53:54.023Z,3.00
2017-12-17T02:56:22.155Z,3.33
2017-12-17T02:58:50.341Z,2.83
2017-12-17T03:01:18.475Z,2.55
2017-12-17T03:03:46.598Z,2.33
2017-12-17T03:06:14.778Z,2.90
2017-12-17T03:08:42.942Z,3.05
2017-12-17T03:11:11.074Z,2.72
2017-12-17T03:13:39.282Z,3.05
2017-12-17T03:16:07.489Z,3.25
2017-12-17T03:18:35.661Z,2.60
2017-12-17T03:21:03.845Z,3.50
2017-12-17T03:23:31.994Z,2.90
2017-12-17T03:26:00.182Z,3.05
2017-12-17T03:28:28.386Z,2.83
2017-12-17T03:30:56.516Z,2.78
2017-12-17T03:33:24.649Z,2.97
2017-12-17T03:35:52.852Z,2.90
2017-12-17T03:38:20.997Z,2.60
2017-12-17T03:40:50.169Z,2.45
2017-12-17T03:43:18.370Z,2.67
2017-12-17T03:45:46.513Z,3.08
2017-12-17T03:48:14.693Z,2.50
2017-12-17T03:50:42.830Z,2.08
2017-12-17T03:53:12.080Z,2.40
2017-12-17T03:55:40.274Z,2.78
2017-12-17T03:58:08.441Z,2.00
2017-12-17T04:00:36.658Z,3.17
2017-12-17T04:03:04.833Z,2.95
2017-12-17T04:05:33.005Z,2.60
2017-12-17T04:08:01.117Z,2.40
2017-12-17T04:10:31.290Z,2.10
2017-12-17T04:12:59.442Z,2.95
2017-12-17T04:15:27.629Z,2.45
2017-12-17T04:17:55.765Z,2.03
2017-12-17T04:20:23.950Z,2.45
2017-12-17T04:22:52.106Z,2.58
2017-12-17T04:25:20.249Z,2.47
2017-12-17T04:27:48.391Z,3.28
2017-12-17T04:30:16.516Z,2.60
2017-12-17T04:32:44.681Z,2.50
2017-12-17T04:35:13.846Z,2.65
2017-12-17T04:37:41.983Z,2.03
2017-12-17T04:40:11.204Z,2.12
2017-12-17T04:42:39.397Z,2.00
2017-12-17T04:45:07.618Z,2.00
2017-12-17T04:47:35.783Z,2.75
2017-12-17T04:50:03.980Z,2.92
2017-12-17T04:52:32.105Z,2.33
2017-12-17T04:55:00.278Z,2.00
2017-12-17T04:57:28.477Z,2.50
2017-12-17T04:59:56.634Z,1.87
2017-12-17T05:02:24.819Z,2.55
2017-12-17T05:04:53.066Z,3.10
2017-12-17T05:07:21.254Z,2.42
2017-12-17T05:09:49.435Z,2.95
2017-12-17T05:12:17.609Z,2.30
2017-12-17T05:14:45.751Z,2.30
2017-12-17T05:17:13.945Z,2.22
2017-12-17T05:19:42.101Z,2.78
2017-12-17T05:22:10.253Z,2.33
2017-12-17T05:24:38.422Z,2.80
2017-12-17T05:27:06.625Z,2.42
2017-12-17T05:29:34.741Z,2.58
2017-12-17T05:32:02.865Z,2.78
2017-12-17T05:34:31.094Z,2.15
2017-12-17T05:36:59.272Z,3.20
2017-12-17T05:39:27.438Z,2.22
2017-12-17T05:41:55.610Z,2.37
2017-12-17T05:44:23.773Z,2.37
2017-12-17T05:46:51.977Z,2.58
2017-12-17T05:49:20.118Z,3.00
2017-12-17T05:51:48.301Z,4.97
2017-12-17T05:54:16.441Z,23.52
2017-12-17T05:56:44.590Z,5.95
2017-12-17T05:59:12.749Z,2.85
2017-12-17T06:01:41.966Z,3.45
2017-12-17T06:04:10.103Z,2.55
2017-12-17T06:06:39.321Z,4.53
2017-12-17T06:09:07.518Z,2.20
2017-12-17T06:11:35.704Z,2.10
2017-12-17T06:14:03.897Z,1.95
2017-12-17T06:16:32.038Z,3.00
2017-12-17T06:19:00.218Z,2.37
2017-12-17T06:21:28.381Z,2.33
2017-12-17T06:23:56.538Z,2.33
2017-12-17T06:26:24.717Z,2.28
2017-12-17T06:28:52.881Z,1.98
2017-12-17T06:31:21.022Z,2.70
2017-12-17T06:33:49.177Z,3.15
2017-12-17T06:36:17.381Z,2.85
2017-12-17T06:38:45.543Z,2.47
2017-12-17T06:41:13.741Z,2.17
2017-12-17T06:43:41.970Z,2.00
2017-12-17T06:46:10.113Z,2.75
2017-12-17T06:48:38.310Z,2.03
2017-12-17T06:51:06.478Z,2.00
2017-12-17T06:53:34.581Z,1.83
2017-12-17T06:56:02.781Z,2.30
2017-12-17T06:58:30.960Z,2.87
2017-12-17T07:00:59.117Z,2.30
2017-12-17T07:03:27.326Z,2.53
2017-12-17T07:05:55.481Z,2.53
2017-12-17T07:08:23.606Z,2.92
2017-12-17T07:10:51.830Z,2.55
2017-12-17T07:13:19.935Z,2.62
2017-12-17T07:15:48.077Z,2.60
2017-12-17T07:18:16.265Z,1.87
2017-12-17T07:20:44.438Z,2.28
2017-12-17T07:23:12.573Z,2.40
2017-12-17T07:25:40.745Z,2.10
2017-12-17T07:28:08.914Z,2.62
2017-12-17T07:30:37.085Z,2.10
2017-12-17T07:33:05.292Z,2.55
2017-12-17T07:35:33.401Z,1.95
2017-12-17T07:38:01.582Z,2.17
2017-12-17T07:40:29.886Z,2.50
2017-12-17T07:42:58.078Z,2.80
2017-12-17T07:45:27.321Z,2.40
2017-12-17T07:47:55.478Z,1.85
2017-12-17T07:50:23.672Z,2.55
2017-12-17T07:52:51.874Z,1.58
2017-12-17T07:55:20.033Z,2.03
2017-12-17T07:57:48.242Z,2.75
2017-12-17T08:00:16.378Z,2.70
2017-12-17T08:02:44.617Z,2.47
2017-12-17T08:05:12.798Z,2.62
2017-12-17T08:07:40.970Z,2.83
2017-12-17T08:10:09.207Z,2.83
2017-12-17T08:12:37.357Z,2.78
2017-12-17T08:15:05.502Z,2.55
2017-12-17T08:17:33.693Z,2.30
2017-12-17T08:20:01.821Z,2.55
2017-12-17T08:22:29.957Z,2.28
2017-12-17T08:24:58.098Z,2.70
2017-12-17T08:27:26.210Z,3.35
2017-12-17T08:29:54.418Z,3.17
2017-12-17T08:32:22.606Z,2.67
2017-12-17T08:34:50.746Z,3.42
2017-12-17T08:37:18.889Z,3.30
2017-12-17T08:39:47.086Z,3.60
2017-12-17T08:42:15.234Z,3.30
2017-12-17T08:44:43.372Z,3.00
2017-12-17T08:47:11.529Z,2.22
2017-12-17T08:49:39.694Z,3.50
2017-12-17T08:52:07.874Z,3.35
2017-12-17T08:54:36.097Z,3.55
2017-12-17T08:57:04.217Z,3.28
2017-12-17T08:59:32.360Z,3.15
2017-12-17T09:02:00.546Z,2.90
2017-12-17T09:04:28.669Z,2.80
2017-12-17T09:06:56.842Z,2.83
2017-12-17T09:09:25.025Z,2.53
2017-12-17T09:11:53.219Z,3.42
2017-12-17T09:14:21.369Z,2.80
2017-12-17T09:16:49.534Z,2.70
2017-12-17T09:19:17.698Z,2.40
2017-12-17T09:21:45.841Z,2.95
2017-12-17T09:24:13.993Z,3.22
2017-12-17T09:26:42.129Z,2.55
2017-12-17T09:29:10.261Z,3.35
2017-12-17T09:31:38.446Z,2.80
2017-12-17T09:34:06.682Z,3.05
2017-12-17T09:36:34.849Z,3.42
2017-12-17T09:39:03.039Z,3.20
2017-12-17T09:41:31.169Z,3.60
2017-12-17T09:43:59.317Z,2.83
2017-12-17T09:46:28.486Z,3.00
2017-12-17T09:48:56.616Z,3.60
2017-12-17T09:51:24.773Z,3.10
2017-12-17T09:53:52.966Z,3.70
2017-12-17T09:56:21.126Z,3.05
2017-12-17T09:58:49.254Z,3.15
2017-12-17T10:01:17.414Z,3.08
2017-12-17T10:03:45.559Z,2.60
2017-12-17T10:06:13.721Z,2.35
2017-12-17T10:08:41.930Z,4.10
2017-12-17T10:11:11.110Z,3.47
2017-12-17T10:13:39.301Z,3.10
2017-12-17T10:16:07.458Z,3.35
2017-12-17T10:18:35.630Z,3.22
2017-12-17T10:21:03.821Z,3.10
2017-12-17T10:23:31.970Z,4.30
2017-12-17T10:26:00.185Z,3.42
2017-12-17T10:28:28.422Z,3.62
2017-12-17T10:30:56.610Z,3.40
2017-12-17T10:33:24.782Z,3.25
2017-12-17T10:35:52.917Z,3.53
2017-12-17T10:38:21.134Z,3.10
2017-12-17T10:40:49.298Z,3.97
2017-12-17T10:43:17.450Z,3.55
2017-12-17T10:45:45.656Z,2.78
2017-12-17T10:48:13.841Z,3.87
2017-12-17T10:50:41.993Z,5.10
2017-12-17T10:53:10.113Z,3.45
2017-12-17T10:55:38.260Z,3.95
2017-12-17T10:58:06.445Z,4.30
2017-12-17T11:00:34.574Z,3.30
2017-12-17T11:03:02.745Z,3.55
2017-12-17T11:05:30.912Z,3.87
2017-12-17T11:07:59.058Z,3.28
2017-12-17T11:10:27.278Z,3.47
2017-12-17T11:12:55.458Z,3.97
2017-12-17T11:15:23.609Z,3.70
2017-12-17T11:17:51.811Z,3.37
2017-12-17T11:20:19.992Z,4.10
2017-12-17T11:22:48.162Z,4.37
2017-12-17T11:25:16.354Z,3.65
2017-12-17T11:27:44.576Z,4.12
2017-12-17T11:30:13.830Z,3.70
2017-12-17T11:32:42.017Z,3.37
2017-12-17T11:35:10.182Z,4.50
2017-12-17T11:37:38.346Z,3.80
2017-12-17T11:40:06.525Z,4.05
2017-12-17T11:42:34.736Z,3.75
2017-12-17T11:45:02.953Z,3.70
2017-12-17T11:47:31.150Z,4.30
2017-12-17T11:49:59.381Z,3.62
2017-12-17T11:52:27.557Z,4.40
2017-12-17T11:54:55.749Z,4.55
2017-12-17T11:57:23.930Z,4.00
2017-12-17T11:59:52.080Z,4.18
2017-12-17T12:02:20.246Z,4.05
2017-12-17T12:04:48.414Z,4.20
2017-12-17T12:07:16.582Z,4.07
2017-12-17T12:09:44.757Z,4.65
2017-12-17T12:12:12.896Z,3.97
2017-12-17T12:14:41.113Z,3.85
2017-12-17T12:17:09.265Z,4.60
2017-12-17T12:19:37.505Z,4.90
2017-12-17T12:22:05.697Z,3.95
2017-12-17T12:24:34.021Z,4.65
2017-12-17T12:27:02.252Z,4.55
2017-12-17T12:29:30.477Z,4.43
2017-12-17T12:31:58.722Z,4.55
2017-12-17T12:34:26.844Z,5.03
2017-12-17T12:36:55.022Z,4.80
2017-12-17T12:39:24.282Z,4.53
2017-12-17T12:41:52.486Z,4.95
2017-12-17T12:44:20.695Z,4.20
2017-12-17T12:46:48.821Z,4.37
2017-12-17T12:49:16.990Z,4.22
2017-12-17T12:51:45.177Z,4.78
2017-12-17T12:54:13.340Z,4.47
2017-12-17T12:56:41.530Z,4.35
2017-12-17T12:59:09.720Z,6.15
2017-12-17T13:01:37.925Z,6.40
2017-12-17T13:04:06.072Z,4.72
2017-12-17T13:06:34.213Z,5.30
2017-12-17T13:09:02.456Z,4.87
2017-12-17T13:11:30.643Z,5.22
2017-12-17T13:13:58.853Z,4.62
2017-12-17T13:16:27.021Z,5.00
2017-12-17T13:18:55.241Z,4.82
2017-12-17T13:21:23.407Z,4.80
2017-12-17T13:23:51.558Z,4.70
2017-12-17T13:26:19.737Z,4.85
2017-12-17T13:28:47.941Z,4.47
2017-12-17T13:31:16.113Z,4.80
2017-12-17T13:33:44.270Z,5.45
2017-12-17T13:36:12.497Z,5.37
2017-12-17T13:38:40.685Z,4.55
2017-12-17T13:41:08.843Z,4.22
2017-12-17T13:43:37.112Z,4.75
2017-12-17T13:46:05.285Z,4.15
2017-12-17T13:48:33.426Z,4.70
2017-12-17T13:51:01.577Z,5.10
2017-12-17T13:53:29.740Z,4.97
2017-12-17T13:55:57.896Z,4.40
2017-12-17T13:58:26.056Z,5.28
2017-12-17T14:00:54.228Z,4.55
2017-12-17T14:03:22.425Z,4.22
2017-12-17T14:05:50.642Z,4.62
2017-12-17T14:08:18.777Z,5.00
2017-12-17T14:10:46.974Z,4.97
2017-12-17T14:13:15.149Z,4.57
2017-12-17T14:15:43.337Z,4.45
2017-12-17T14:18:11.517Z,4.20
2017-12-17T14:20:39.743Z,4.20
2017-12-17T14:23:07.914Z,4.45
2017-12-17T14:25:36.091Z,3.83
2017-12-17T14:28:04.250Z,3.67
2017-12-17T14:30:32.410Z,4.65
2017-12-17T14:33:00.573Z,4.70
2017-12-17T14:35:28.754Z,4.65
2017-12-17T14:37:56.906Z,4.53
2017-12-17T14:40:26.180Z,4.55
2017-12-17T14:42:54.410Z,4.15
2017-12-17T14:45:22.551Z,4.65
2017-12-17T14:47:50.733Z,3.45
2017-12-17T14:50:18.964Z,3.33
2017-12-17T14:52:47.154Z,4.20
2017-12-17T14:55:15.334Z,2.92
2017-12-17T14:57:43.540Z,2.67
2017-12-17T15:00:11.709Z,3.03
2017-12-17T15:02:39.877Z,3.25
2017-12-17T15:05:08.042Z,3.97
2017-12-17T15:07:36.206Z,3.92
2017-12-17T15:10:04.422Z,3.80
2017-12-17T15:12:32.566Z,3.87
2017-12-17T15:15:00.770Z,3.75
2017-12-17T15:17:28.969Z,3.40
2017-12-17T15:19:57.337Z,3.35
2017-12-17T15:22:25.494Z,3.65
2017-12-17T15:24:53.681Z,3.55
2017-12-17T15:27:21.838Z,4.68
2017-12-17T15:29:50.277Z,4.07
2017-12-17T15:32:18.461Z,3.47
2017-12-17T15:34:46.618Z,3.70
2017-12-17T15:37:14.806Z,3.70
2017-12-17T15:39:43.022Z,3.92
2017-12-17T15:42:11.161Z,4.00
2017-12-17T15:44:39.345Z,3.92
2017-12-17T15:47:07.510Z,3.85
2017-12-17T15:49:35.747Z,5.22
2017-12-17T15:52:03.891Z,4.95
2017-12-17T15:54:33.105Z,4.60
2017-12-17T15:57:01.275Z,4.62
2017-12-17T15:59:29.441Z,4.75
2017-12-17T16:01:57.622Z,5.60
2017-12-17T16:04:25.757Z,5.15
2017-12-17T16:06:53.949Z,5.05
2017-12-17T16:09:22.149Z,4.97
2017-12-17T16:11:50.326Z,5.55
2017-12-17T16:14:18.529Z,4.72
2017-12-17T16:16:46.661Z,5.15
2017-12-17T16:19:14.845Z,5.40
2017-12-17T16:21:43.018Z,5.37
2017-12-17T16:24:11.238Z,4.85
2017-12-17T16:26:39.365Z,5.20
2017-12-17T16:29:07.573Z,5.22
2017-12-17T16:31:35.749Z,5.93
2017-12-17T16:34:04.082Z,4.90
2017-12-17T16:36:32.252Z,5.50
2017-12-17T16:39:00.427Z,4.95
2017-12-17T16:41:28.642Z,5.75
2017-12-17T16:43:56.785Z,6.10
2017-12-17T16:46:24.938Z,5.32
2017-12-17T16:48:53.081Z,5.75
2017-12-17T16:51:21.278Z,5.10
2017-12-17T16:53:49.464Z,4.18
2017-12-17T16:56:17.599Z,5.55
2017-12-17T16:58:45.794Z,4.75
2017-12-17T17:01:13.945Z,5.40
2017-12-17T17:03:42.074Z,4.62
2017-12-17T17:06:10.259Z,5.72
2017-12-17T17:08:38.468Z,7.07
2017-12-17T17:11:06.597Z,6.20
2017-12-17T17:13:34.793Z,5.53
2017-12-17T17:16:02.973Z,7.45
2017-12-17T17:18:32.335Z,6.75
2017-12-17T17:21:00.481Z,6.00
2017-12-17T17:23:29.709Z,6.78
2017-12-17T17:25:57.898Z,6.50
2017-12-17T17:28:26.020Z,6.15
2017-12-17T17:30:54.216Z,7.35
2017-12-17T17:33:22.413Z,6.32
2017-12-17T17:35:50.616Z,7.15
2017-12-17T17:38:18.768Z,6.97
2017-12-17T17:40:46.954Z,7.30
2017-12-17T17:43:15.086Z,6.22
2017-12-17T17:45:43.270Z,7.15
2017-12-17T17:48:11.440Z,6.55
2017-12-17T17:50:39.622Z,7.68
2017-12-17T17:53:07.778Z,6.32
2017-12-17T17:55:35.950Z,7.12
2017-12-17T17:58:04.118Z,6.87
2017-12-17T18:00:32.261Z,6.95
2017-12-17T18:03:00.454Z,6.07
2017-12-17T18:05:29.713Z,7.95
2017-12-17T18:07:57.865Z,6.07
2017-12-17T18:10:26.026Z,6.22
2017-12-17T18:12:54.278Z,6.60
2017-12-17T18:15:22.412Z,6.20
2017-12-17T18:17:50.582Z,7.75
2017-12-17T18:20:18.701Z,6.25
2017-12-17T18:22:46.859Z,6.75
2017-12-17T18:25:15.046Z,5.97
2017-12-17T18:27:43.233Z,7.12
2017-12-17T18:30:11.446Z,7.43
2017-12-17T18:32:39.746Z,6.68
2017-12-17T18:35:07.929Z,7.15
2017-12-17T18:37:36.105Z,6.75
2017-12-17T18:40:04.262Z,7.95
2017-12-17T18:42:32.385Z,7.55
2017-12-17T18:45:00.532Z,7.10
2017-12-17T18:47:28.840Z,7.80
2017-12-17T18:49:57.752Z,6.72
2017-12-17T18:52:25.929Z,8.00
2017-12-17T18:54:55.383Z,7.70
2017-12-17T18:57:23.570Z,7.05
2017-12-17T18:59:51.822Z,7.93
2017-12-17T19:02:19.973Z,8.48
2017-12-17T19:04:48.168Z,9.00
2017-12-17T19:07:16.442Z,8.20
2017-12-17T19:09:44.614Z,8.88
2017-12-17T19:12:12.810Z,7.35
2017-12-17T19:14:42.142Z,7.87
2017-12-17T19:17:10.270Z,8.75
2017-12-17T19:19:38.453Z,8.50
2017-12-17T19:22:06.656Z,8.05
2017-12-17T19:24:34.829Z,7.45
2017-12-17T19:27:03.337Z,8.10
2017-12-17T19:29:31.542Z,8.05
2017-12-17T19:31:59.714Z,7.82
2017-12-17T19:34:27.861Z,7.53
2017-12-17T19:36:56.081Z,7.60
2017-12-17T19:39:24.194Z,7.95
2017-12-17T19:41:52.324Z,8.55
2017-12-17T19:44:20.497Z,7.35
2017-12-17T19:46:48.861Z,8.15
2017-12-17T19:49:17.292Z,7.00
2017-12-17T19:51:45.442Z,7.25
2017-12-17T19:54:13.867Z,8.23
2017-12-17T19:56:42.097Z,7.03
2017-12-17T19:59:10.260Z,8.55
2017-12-17T20:01:38.431Z,7.43
2017-12-17T20:04:06.601Z,8.35
2017-12-17T20:06:34.761Z,8.68
2017-12-17T20:09:02.982Z,9.15
2017-12-17T20:11:31.147Z,7.62
2017-12-17T20:13:59.309Z,9.40
2017-12-17T20:16:27.477Z,7.78
2017-12-17T20:18:55.634Z,9.25
2017-12-17T20:21:24.658Z,9.55
2017-12-17T20:23:53.019Z,8.80
2017-12-17T20:26:21.235Z,8.70
2017-12-17T20:28:50.509Z,8.73
2017-12-17T20:31:18.717Z,8.27
2017-12-17T20:33:46.929Z,7.65
2017-12-17T20:36:15.122Z,7.95
2017-12-17T20:38:43.274Z,6.93
2017-12-17T20:41:11.437Z,8.23
2017-12-17T20:43:39.601Z,8.90
2017-12-17T20:46:07.746Z,9.18
2017-12-17T20:48:35.853Z,8.35
2017-12-17T20:51:04.039Z,9.90
2017-12-17T20:53:32.225Z,8.30
2017-12-17T20:56:00.493Z,8.80
2017-12-17T20:58:28.633Z,9.15
2017-12-17T21:00:56.920Z,9.50
2017-12-17T21:03:25.098Z,9.40
2017-12-17T21:05:53.290Z,9.75
2017-12-17T21:08:21.419Z,9.70
2017-12-17T21:10:49.540Z,10.55
2017-12-17T21:13:17.689Z,9.82
2017-12-17T21:15:45.846Z,10.65
2017-12-17T21:18:13.993Z,12.20
2017-12-17T21:20:42.258Z,9.82
2017-12-17T21:23:10.614Z,10.10
2017-12-17T21:25:38.858Z,9.43
2017-12-17T21:28:07.024Z,10.00
2017-12-17T21:30:35.324Z,11.20
2017-12-17T21:33:03.488Z,11.15
2017-12-17T21:35:31.656Z,10.00
2017-12-17T21:37:59.836Z,10.15
2017-12-17T21:40:27.994Z,12.15
2017-12-17T21:42:56.126Z,11.52
2017-12-17T21:45:25.355Z,10.18
2017-12-17T21:47:54.970Z,10.30
2017-12-17T21:50:23.153Z,10.23
2017-12-17T21:52:51.391Z,9.85
2017-12-17T21:55:19.557Z,10.82
2017-12-17T21:57:47.733Z,9.90
2017-12-17T22:00:15.927Z,9.50
2017-12-17T22:02:44.034Z,9.80
2017-12-17T22:05:12.259Z,7.78
2017-12-17T22:07:40.459Z,11.43
2017-12-17T22:10:08.609Z,8.52
2017-12-17T22:12:36.821Z,9.40
2017-12-17T22:15:05.061Z,9.52
2017-12-17T22:17:33.169Z,9.68
2017-12-17T22:20:01.390Z,9.70
2017-12-17T22:22:29.571Z,8.55
2017-12-17T22:24:57.707Z,9.27
2017-12-17T22:27:25.845Z,9.88
2017-12-17T22:29:54.042Z,10.77
2017-12-17T22:32:22.202Z,9.75
2017-12-17T22:34:50.741Z,10.43
2017-12-17T22:37:18.941Z,8.77
2017-12-17T22:39:47.236Z,10.85
2017-12-17T22:42:15.422Z,9.80
2017-12-17T22:44:43.581Z,9.18
2017-12-17T22:47:11.745Z,8.20
2017-12-17T22:49:39.899Z,8.07
2017-12-17T22:52:08.082Z,8.80
2017-12-17T22:54:36.245Z,9.80
2017-12-17T22:57:04.430Z,8.75
2017-12-17T22:59:32.617Z,9.35
2017-12-17T23:02:00.781Z,8.50
2017-12-17T23:04:29.135Z,7.82
2017-12-17T23:06:57.333Z,7.97
2017-12-17T23:09:27.143Z,9.82
2017-12-17T23:11:55.437Z,8.15
2017-12-17T23:14:23.636Z,9.20
2017-12-17T23:16:51.777Z,7.80
2017-12-17T23:19:19.942Z,8.73
2017-12-17T23:21:48.122Z,8.30
2017-12-17T23:24:17.122Z,7.75
2017-12-17T23:26:45.278Z,9.30
2017-12-17T23:29:13.442Z,9.30
2017-12-17T23:31:41.602Z,8.43
2017-12-17T23:34:09.757Z,8.68
2017-12-17T23:36:40.002Z,10.73
2017-12-17T23:39:08.178Z,9.00
2017-12-17T23:41:36.442Z,9.18
2017-12-17T23:44:04.605Z,9.40
2017-12-17T23:46:32.773Z,8.88
2017-12-17T23:49:00.930Z,10.52
2017-12-17T23:51:29.141Z,10.38
2017-12-17T23:53:57.330Z,12.35
2017-12-17T23:56:25.548Z,10.70
2017-12-17T23:58:53.741Z,9.65
